createdAt,value
2019-04-04T00:00:31.508Z,4.30
2019-04-04T00:01:36.780Z,4.83
2019-04-04T00:02:40.446Z,4.50
2019-04-04T00:03:44.195Z,4.67
2019-04-04T00:04:47.912Z,4.80
2019-04-04T00:05:51.561Z,4.50
2019-04-04T00:06:57.829Z,4.70
2019-04-04T00:08:00.689Z,4.60
2019-04-04T00:09:08.095Z,4.67
2019-04-04T00:10:13.329Z,4.17
2019-04-04T00:11:17.282Z,4.70
2019-04-04T00:12:21.047Z,4.53
2019-04-04T00:13:24.624Z,4.60
2019-04-04T00:14:28.375Z,4.50
2019-04-04T00:15:32.093Z,5.50
2019-04-04T00:16:35.832Z,4.60
2019-04-04T00:17:39.863Z,4.57
2019-04-04T00:18:43.557Z,4.77
2019-04-04T00:19:47.305Z,5.13
2019-04-04T00:20:51.010Z,4.40
2019-04-04T00:21:54.672Z,4.67
2019-04-04T00:22:58.403Z,4.50
2019-04-04T00:24:02.142Z,4.57
2019-04-04T00:25:09.672Z,4.33
2019-04-04T00:26:12.016Z,4.30
2019-04-04T00:27:15.643Z,4.90
2019-04-04T00:28:19.365Z,5.10
2019-04-04T00:29:23.050Z,3.67
2019-04-04T00:30:26.750Z,5.07
2019-04-04T00:31:30.486Z,4.70
2019-04-04T00:32:34.220Z,4.93
2019-04-04T00:33:37.932Z,4.53
2019-04-04T00:34:41.633Z,4.97
2019-04-04T00:35:45.331Z,5.60
2019-04-04T00:36:49.050Z,6.13
2019-04-04T00:37:52.794Z,6.10
2019-04-04T00:38:56.480Z,6.60
2019-04-04T00:40:00.219Z,6.83
2019-04-04T00:41:04.194Z,6.60
2019-04-04T00:42:07.898Z,5.80
2019-04-04T00:43:11.963Z,5.90
2019-04-04T00:44:15.667Z,6.80
2019-04-04T00:45:19.385Z,5.93
2019-04-04T00:46:23.163Z,6.80
2019-04-04T00:47:26.821Z,6.40
2019-04-04T00:48:32.204Z,7.07
2019-04-04T00:49:36.220Z,6.47
2019-04-04T00:50:39.980Z,6.20
2019-04-04T00:51:43.657Z,6.60
2019-04-04T00:52:47.296Z,6.50
2019-04-04T00:53:50.997Z,6.00
2019-04-04T00:54:54.664Z,6.23
2019-04-04T00:55:58.296Z,6.20
2019-04-04T00:57:01.982Z,6.60
2019-04-04T00:58:05.615Z,6.20
2019-04-04T00:59:09.320Z,6.80
2019-04-04T01:00:13.514Z,6.47
2019-04-04T01:01:17.220Z,5.70
2019-04-04T01:02:20.925Z,6.10
2019-04-04T01:03:24.647Z,6.40
2019-04-04T01:04:30.743Z,6.43
2019-04-04T01:05:33.895Z,6.00
2019-04-04T01:06:37.613Z,6.83
2019-04-04T01:07:41.283Z,6.40
2019-04-04T01:08:44.956Z,6.67
2019-04-04T01:09:48.591Z,6.27
2019-04-04T01:10:52.264Z,7.03
2019-04-04T01:11:56.737Z,6.20
2019-04-04T01:13:00.431Z,6.10
2019-04-04T01:14:04.146Z,6.93
2019-04-04T01:15:08.158Z,6.80
2019-04-04T01:16:11.865Z,6.63
2019-04-04T01:17:15.596Z,6.30
2019-04-04T01:18:19.348Z,6.40
2019-04-04T01:19:23.778Z,6.17
2019-04-04T01:20:27.922Z,6.20
2019-04-04T01:21:31.622Z,5.87
2019-04-04T01:22:35.342Z,5.73
2019-04-04T01:23:41.287Z,5.67
2019-04-04T01:24:44.466Z,5.90
2019-04-04T01:25:48.198Z,6.40
2019-04-04T01:26:51.936Z,5.90
2019-04-04T01:27:55.670Z,5.63
2019-04-04T01:28:59.346Z,6.27
2019-04-04T01:30:03.414Z,5.93
2019-04-04T01:31:07.148Z,6.27
2019-04-04T01:32:30.159Z,6.33
2019-04-04T01:33:33.875Z,6.33
2019-04-04T01:34:37.551Z,6.13
2019-04-04T01:35:41.207Z,6.03
2019-04-04T01:36:44.851Z,6.70
2019-04-04T01:37:48.589Z,6.00
2019-04-04T01:38:52.255Z,6.20
2019-04-04T01:39:55.949Z,6.50
2019-04-04T01:40:59.587Z,6.67
2019-04-04T01:42:03.131Z,6.73
2019-04-04T01:43:08.814Z,6.47
2019-04-04T01:44:12.214Z,6.40
2019-04-04T01:45:15.975Z,6.80
2019-04-04T01:46:19.645Z,7.67
2019-04-04T01:47:23.283Z,6.83
2019-04-04T01:48:26.845Z,6.43
2019-04-04T01:49:30.406Z,6.77
2019-04-04T01:50:34.084Z,6.90
2019-04-04T01:51:37.747Z,7.30
2019-04-04T01:52:41.306Z,6.90
2019-04-04T01:53:45.352Z,6.73
2019-04-04T01:54:49.084Z,6.40
2019-04-04T01:55:52.753Z,7.43
2019-04-04T01:56:56.357Z,6.30
2019-04-04T01:57:59.985Z,6.80
2019-04-04T01:59:03.712Z,7.43
2019-04-04T02:00:10.425Z,6.47
2019-04-04T02:01:16.243Z,6.43
2019-04-04T02:02:20.182Z,6.87
2019-04-04T02:03:23.856Z,6.23
2019-04-04T02:04:27.481Z,6.60
2019-04-04T02:05:31.135Z,6.53
2019-04-04T02:06:35.147Z,6.63
2019-04-04T02:07:38.817Z,7.17
2019-04-04T02:08:42.482Z,7.03
2019-04-04T02:09:46.476Z,6.83
2019-04-04T02:10:50.463Z,7.00
2019-04-04T02:11:54.151Z,7.17
2019-04-04T02:12:58.128Z,7.80
2019-04-04T02:14:01.762Z,7.67
2019-04-04T02:15:08.446Z,7.33
2019-04-04T02:16:12.089Z,7.37
2019-04-04T02:17:15.782Z,8.50
2019-04-04T02:18:19.420Z,8.63
2019-04-04T02:19:24.823Z,8.50
2019-04-04T02:20:28.465Z,7.90
2019-04-04T02:21:32.076Z,8.50
2019-04-04T02:22:35.767Z,8.17
2019-04-04T02:23:39.412Z,7.87
2019-04-04T02:24:43.099Z,7.33
2019-04-04T02:25:46.749Z,7.53
2019-04-04T02:26:50.412Z,7.37
2019-04-04T02:27:54.113Z,7.30
2019-04-04T02:28:57.763Z,7.43
2019-04-04T02:30:01.416Z,7.50
2019-04-04T02:31:06.540Z,6.70
2019-04-04T02:32:11.900Z,6.97
2019-04-04T02:33:15.568Z,7.80
2019-04-04T02:34:19.239Z,7.20
2019-04-04T02:35:22.872Z,6.50
2019-04-04T02:36:26.554Z,6.53
2019-04-04T02:37:30.197Z,6.83
2019-04-04T02:38:33.874Z,6.83
2019-04-04T02:39:37.530Z,6.80
2019-04-04T02:40:42.249Z,6.43
2019-04-04T02:41:48.483Z,7.07
2019-04-04T02:42:53.951Z,6.67
2019-04-04T02:43:59.408Z,6.90
2019-04-04T02:45:05.137Z,6.47
2019-04-04T02:46:11.201Z,6.90
2019-04-04T02:47:16.803Z,6.80
2019-04-04T02:48:23.162Z,7.70
2019-04-04T02:49:28.108Z,7.20
2019-04-04T02:50:29.209Z,6.97
2019-04-04T02:51:32.848Z,6.90
2019-04-04T02:52:36.515Z,7.43
2019-04-04T02:53:40.529Z,7.30
2019-04-04T02:54:44.239Z,7.67
2019-04-04T02:55:47.960Z,6.87
2019-04-04T02:56:51.609Z,7.30
2019-04-04T02:57:55.249Z,6.90
2019-04-04T02:58:58.886Z,7.20
2019-04-04T03:00:02.678Z,7.53
2019-04-04T03:01:06.286Z,6.90
2019-04-04T03:02:10.306Z,7.60
2019-04-04T03:03:13.938Z,7.80
2019-04-04T03:04:17.590Z,6.87
2019-04-04T03:05:21.217Z,6.80
2019-04-04T03:06:25.168Z,7.60
2019-04-04T03:07:30.837Z,8.53
2019-04-04T03:08:36.765Z,8.00
2019-04-04T03:09:42.507Z,7.90
2019-04-04T03:10:47.715Z,7.70
2019-04-04T03:11:53.538Z,8.63
2019-04-04T03:12:58.684Z,8.83
2019-04-04T03:14:03.746Z,9.67
2019-04-04T03:15:10.971Z,8.27
2019-04-04T03:16:14.629Z,9.13
2019-04-04T03:17:18.275Z,9.43
2019-04-04T03:18:21.908Z,8.80
2019-04-04T03:19:25.567Z,9.53
2019-04-04T03:20:29.181Z,9.23
2019-04-04T03:21:32.884Z,9.73
2019-04-04T03:22:36.628Z,10.57
2019-04-04T03:23:40.250Z,9.30
2019-04-04T03:24:45.123Z,10.67
2019-04-04T03:25:49.144Z,10.73
2019-04-04T03:26:53.636Z,9.83
2019-04-04T03:27:58.417Z,9.40
2019-04-04T03:29:05.631Z,8.60
2019-04-04T03:30:13.461Z,8.57
2019-04-04T03:31:13.956Z,8.60
2019-04-04T03:32:17.825Z,7.47
2019-04-04T03:33:28.814Z,7.60
2019-04-04T03:34:26.799Z,7.43
2019-04-04T03:35:30.353Z,7.33
2019-04-04T03:36:34.063Z,7.13
2019-04-04T03:37:40.451Z,7.47
2019-04-04T03:38:46.063Z,7.17
2019-04-04T03:39:51.957Z,7.57
2019-04-04T03:40:57.254Z,7.10
2019-04-04T03:41:59.428Z,7.07
2019-04-04T03:43:03.080Z,7.40
2019-04-04T03:44:06.708Z,7.27
2019-04-04T03:45:10.566Z,6.70
2019-04-04T03:46:14.248Z,7.40
2019-04-04T03:47:17.921Z,7.13
2019-04-04T03:48:21.550Z,7.17
2019-04-04T03:49:25.183Z,7.47
2019-04-04T03:50:30.223Z,6.93
2019-04-04T03:51:37.129Z,6.83
2019-04-04T03:52:43.123Z,6.90
2019-04-04T03:53:50.266Z,6.80
2019-04-04T03:54:56.356Z,6.83
2019-04-04T03:56:01.198Z,7.10
2019-04-04T03:57:04.937Z,7.50
2019-04-04T03:58:08.657Z,7.20
2019-04-04T03:59:12.317Z,7.07
2019-04-04T04:00:30.232Z,7.80
2019-04-04T04:01:34.377Z,6.97
2019-04-04T04:02:38.072Z,6.47
2019-04-04T04:03:41.641Z,7.37
2019-04-04T04:04:45.836Z,8.27
2019-04-04T04:05:49.631Z,7.60
2019-04-04T04:06:53.293Z,7.53
2019-04-04T04:07:57.060Z,8.13
2019-04-04T04:09:01.070Z,7.63
2019-04-04T04:10:06.578Z,7.80
2019-04-04T04:11:10.387Z,7.70
2019-04-04T04:12:14.059Z,7.83
2019-04-04T04:13:17.690Z,7.10
2019-04-04T04:14:22.781Z,6.93
2019-04-04T04:15:30.297Z,8.27
2019-04-04T04:16:35.921Z,7.30
2019-04-04T04:17:38.285Z,7.57
2019-04-04T04:18:41.838Z,7.30
2019-04-04T04:19:45.511Z,6.30
2019-04-04T04:20:49.083Z,7.27
2019-04-04T04:21:52.812Z,7.20
2019-04-04T04:22:56.417Z,7.87
2019-04-04T04:24:00.054Z,8.40
2019-04-04T04:25:04.301Z,7.70
2019-04-04T04:26:09.503Z,8.27
2019-04-04T04:27:15.522Z,8.43
2019-04-04T04:28:20.153Z,8.40
2019-04-04T04:29:24.175Z,8.90
2019-04-04T04:30:27.801Z,8.80
2019-04-04T04:31:31.424Z,9.20
2019-04-04T04:32:37.204Z,9.60
2019-04-04T04:33:40.476Z,9.20
2019-04-04T04:34:44.164Z,8.97
2019-04-04T04:35:47.811Z,8.17
2019-04-04T04:36:51.784Z,8.73
2019-04-04T04:37:55.410Z,8.87
2019-04-04T04:39:00.226Z,8.20
2019-04-04T04:40:04.501Z,8.27
2019-04-04T04:41:08.210Z,7.90
2019-04-04T04:42:12.143Z,8.63
2019-04-04T04:43:16.088Z,8.60
2019-04-04T04:44:19.809Z,8.20
2019-04-04T04:45:23.452Z,8.60
2019-04-04T04:46:27.135Z,8.40
2019-04-04T04:47:30.804Z,9.63
2019-04-04T04:48:35.965Z,9.57
2019-04-04T04:49:39.571Z,8.63
2019-04-04T04:50:43.120Z,9.00
2019-04-04T04:51:53.718Z,8.63
2019-04-04T04:52:57.365Z,8.00
2019-04-04T04:54:01.082Z,11.30
2019-04-04T04:55:05.329Z,12.57
2019-04-04T04:56:08.968Z,17.20
2019-04-04T04:57:28.149Z,14.43
2019-04-04T04:58:18.135Z,12.90
2019-04-04T04:59:21.777Z,12.63
2019-04-04T05:00:27.707Z,12.37
2019-04-04T05:01:30.885Z,11.93
2019-04-04T05:02:34.475Z,11.63
2019-04-04T05:03:38.127Z,11.03
2019-04-04T05:04:41.864Z,11.93
2019-04-04T05:05:45.559Z,9.97
2019-04-04T05:06:49.207Z,10.53
2019-04-04T05:07:54.879Z,11.33
2019-04-04T05:08:58.433Z,12.23
2019-04-04T05:10:02.093Z,10.77
2019-04-04T05:11:05.847Z,11.03
2019-04-04T05:12:09.489Z,14.30
2019-04-04T05:13:13.181Z,15.93
2019-04-04T05:14:16.855Z,12.27
2019-04-04T05:15:21.367Z,14.77
2019-04-04T05:16:25.133Z,15.50
2019-04-04T05:17:28.771Z,13.63
2019-04-04T05:18:32.553Z,13.67
2019-04-04T05:19:36.203Z,13.10
2019-04-04T05:20:39.866Z,13.03
2019-04-04T05:21:43.496Z,13.87
2019-04-04T05:22:47.164Z,14.90
2019-04-04T05:23:50.879Z,17.37
2019-04-04T05:25:07.418Z,16.57
2019-04-04T05:26:02.133Z,17.20
2019-04-04T05:27:05.995Z,16.70
2019-04-04T05:28:10.737Z,15.63
2019-04-04T05:29:15.195Z,15.40
2019-04-04T05:30:20.349Z,14.97
2019-04-04T05:31:24.203Z,15.13
2019-04-04T05:32:27.914Z,15.00
2019-04-04T05:33:31.776Z,16.63
2019-04-04T05:34:35.398Z,14.30
2019-04-04T05:35:39.380Z,14.77
2019-04-04T05:36:43.029Z,15.57
2019-04-04T05:37:46.727Z,14.13
2019-04-04T05:38:50.674Z,14.33
2019-04-04T05:39:55.416Z,14.40
2019-04-04T05:40:59.276Z,18.07
2019-04-04T05:42:02.897Z,16.53
2019-04-04T05:43:06.553Z,16.97
2019-04-04T05:44:10.412Z,16.93
2019-04-04T05:45:15.122Z,16.03
2019-04-04T05:46:19.633Z,15.83
2019-04-04T05:47:23.937Z,15.13
2019-04-04T05:48:29.190Z,18.63
2019-04-04T05:49:33.447Z,15.50
2019-04-04T05:50:37.148Z,16.03
2019-04-04T05:51:40.901Z,21.90
2019-04-04T05:52:44.523Z,17.00
2019-04-04T05:53:48.276Z,16.80
2019-04-04T05:54:51.946Z,16.83
2019-04-04T05:55:55.643Z,17.10
2019-04-04T05:56:59.192Z,18.30
2019-04-04T05:58:02.851Z,16.57
2019-04-04T05:59:06.527Z,14.97
2019-04-04T06:00:12.230Z,16.70
2019-04-04T06:01:17.656Z,15.83
2019-04-04T06:02:21.359Z,16.27
2019-04-04T06:03:24.998Z,21.30
2019-04-04T06:04:28.669Z,17.87
2019-04-04T06:05:32.315Z,16.77
2019-04-04T06:06:36.004Z,18.83
2019-04-04T06:07:39.638Z,18.23
2019-04-04T06:08:43.495Z,17.97
2019-04-04T06:09:47.165Z,17.83
2019-04-04T06:10:50.899Z,18.97
2019-04-04T06:11:54.882Z,18.23
2019-04-04T06:12:58.454Z,17.10
2019-04-04T06:14:02.302Z,17.73
2019-04-04T06:15:07.226Z,16.70
2019-04-04T06:16:10.893Z,16.93
2019-04-04T06:17:15.024Z,17.77
2019-04-04T06:18:18.595Z,17.20
2019-04-04T06:19:22.262Z,17.50
2019-04-04T06:20:26.002Z,17.73
2019-04-04T06:21:29.694Z,17.27
2019-04-04T06:22:33.369Z,17.13
2019-04-04T06:23:37.102Z,15.83
2019-04-04T06:24:40.724Z,16.10
2019-04-04T06:25:44.502Z,16.40
2019-04-04T06:26:48.581Z,16.13
2019-04-04T06:27:52.239Z,15.17
2019-04-04T06:28:56.283Z,14.07
2019-04-04T06:29:59.917Z,13.60
2019-04-04T06:31:03.620Z,12.70
2019-04-04T06:32:08.219Z,11.50
2019-04-04T06:33:11.910Z,10.27
2019-04-04T06:34:15.661Z,11.23
2019-04-04T06:35:19.305Z,9.70
2019-04-04T06:36:22.965Z,10.03
2019-04-04T06:37:28.100Z,11.80
2019-04-04T06:38:31.877Z,11.40
2019-04-04T06:39:35.507Z,10.97
2019-04-04T06:40:40.788Z,10.73
2019-04-04T06:41:44.441Z,10.50
2019-04-04T06:42:48.073Z,10.73
2019-04-04T06:43:51.670Z,11.00
2019-04-04T06:44:55.305Z,9.20
2019-04-04T06:46:01.764Z,10.40
2019-04-04T06:47:05.439Z,9.37
2019-04-04T06:48:09.068Z,8.60
2019-04-04T06:49:12.767Z,9.60
2019-04-04T06:50:16.398Z,9.60
2019-04-04T06:51:20.051Z,10.87
2019-04-04T06:52:23.705Z,9.90
2019-04-04T06:53:27.378Z,10.20
2019-04-04T06:54:31.054Z,8.80
2019-04-04T06:55:39.763Z,10.43
2019-04-04T06:56:40.064Z,8.43
2019-04-04T06:57:43.722Z,8.27
2019-04-04T06:58:47.362Z,8.60
2019-04-04T06:59:51.368Z,8.87
2019-04-04T07:00:55.092Z,8.80
2019-04-04T07:01:58.739Z,8.50
2019-04-04T07:03:02.397Z,7.60
2019-04-04T07:04:06.062Z,7.40
2019-04-04T07:05:10.935Z,6.23
2019-04-04T07:06:14.673Z,6.93
2019-04-04T07:07:18.311Z,7.27
2019-04-04T07:08:21.973Z,7.60
2019-04-04T07:09:25.629Z,8.43
2019-04-04T07:10:29.653Z,8.23
2019-04-04T07:11:35.191Z,8.17
2019-04-04T07:12:39.535Z,7.47
2019-04-04T07:13:43.228Z,8.07
2019-04-04T07:14:49.529Z,8.03
2019-04-04T07:16:06.025Z,7.53
2019-04-04T07:16:58.728Z,7.90
2019-04-04T07:18:02.512Z,8.30
2019-04-04T07:19:08.123Z,8.13
2019-04-04T07:20:12.321Z,7.67
2019-04-04T07:21:16.009Z,9.10
2019-04-04T07:22:20.578Z,9.60
2019-04-04T07:23:27.423Z,9.67
2019-04-04T07:24:31.155Z,8.70
2019-04-04T07:25:35.948Z,8.87
2019-04-04T07:26:39.769Z,9.37
2019-04-04T07:27:45.362Z,10.23
2019-04-04T07:28:51.974Z,10.27
2019-04-04T07:29:56.569Z,10.10
2019-04-04T07:31:01.751Z,10.23
2019-04-04T07:32:07.286Z,9.87
2019-04-04T07:33:12.630Z,10.87
2019-04-04T07:34:16.176Z,10.50
2019-04-04T07:35:21.167Z,11.37
2019-04-04T07:36:24.906Z,10.10
2019-04-04T07:37:28.601Z,9.90
2019-04-04T07:38:34.951Z,10.20
2019-04-04T07:39:37.592Z,12.17
2019-04-04T07:40:41.232Z,11.77
2019-04-04T07:41:45.151Z,11.23
2019-04-04T07:42:48.981Z,10.87
2019-04-04T07:43:52.625Z,10.97
2019-04-04T07:44:56.282Z,9.43
2019-04-04T07:46:05.206Z,9.43
2019-04-04T07:47:05.738Z,9.43
2019-04-04T07:48:12.105Z,11.13
2019-04-04T07:49:14.808Z,10.13
2019-04-04T07:50:18.459Z,9.97
2019-04-04T07:51:22.159Z,10.47
2019-04-04T07:52:25.795Z,9.20
2019-04-04T07:53:29.552Z,8.13
2019-04-04T07:54:33.223Z,8.63
2019-04-04T07:55:36.887Z,7.77
2019-04-04T07:56:40.593Z,6.60
2019-04-04T07:57:44.248Z,6.43
2019-04-04T07:58:47.896Z,6.53
2019-04-04T07:59:51.531Z,6.50
2019-04-04T08:00:55.211Z,6.23
2019-04-04T08:01:58.880Z,5.40
2019-04-04T08:03:02.517Z,4.43
2019-04-04T08:04:06.767Z,6.20
2019-04-04T08:05:13.208Z,6.03
2019-04-04T08:06:16.145Z,4.93
2019-04-04T08:07:19.850Z,4.90
2019-04-04T08:08:23.481Z,4.90
2019-04-04T08:09:27.191Z,4.57
2019-04-04T08:10:30.841Z,5.67
2019-04-04T08:11:34.471Z,4.33
2019-04-04T08:12:38.129Z,5.60
2019-04-04T08:13:41.831Z,5.73
2019-04-04T08:14:45.654Z,4.97
2019-04-04T08:15:49.322Z,5.27
2019-04-04T08:16:53.052Z,5.33
2019-04-04T08:17:56.746Z,5.07
2019-04-04T08:19:00.346Z,4.70
2019-04-04T08:20:05.815Z,4.30
2019-04-04T08:21:09.465Z,4.03
2019-04-04T08:22:13.167Z,4.27
2019-04-04T08:23:16.894Z,3.97
2019-04-04T08:24:20.547Z,3.73
2019-04-04T08:25:24.161Z,4.40
2019-04-04T08:26:27.827Z,4.07
2019-04-04T08:27:31.568Z,5.13
2019-04-04T08:28:35.329Z,4.30
2019-04-04T08:29:39.030Z,4.33
2019-04-04T08:30:42.730Z,3.83
2019-04-04T08:31:46.395Z,3.87
2019-04-04T08:32:49.960Z,4.10
2019-04-04T08:33:53.689Z,4.00
2019-04-04T08:34:57.372Z,4.57
2019-04-04T08:36:06.138Z,4.07
2019-04-04T08:37:06.420Z,4.23
2019-04-04T08:38:10.044Z,4.40
2019-04-04T08:39:15.165Z,4.60
2019-04-04T08:40:18.835Z,4.30
2019-04-04T08:41:22.497Z,4.07
2019-04-04T08:42:26.211Z,4.03
2019-04-04T08:43:29.810Z,3.87
2019-04-04T08:44:33.515Z,4.47
2019-04-04T08:45:37.182Z,4.53
2019-04-04T08:46:41.223Z,5.17
2019-04-04T08:47:44.841Z,4.90
2019-04-04T08:48:48.981Z,4.80
2019-04-04T08:49:52.831Z,4.60
2019-04-04T08:50:56.548Z,3.97
2019-04-04T08:52:00.177Z,4.60
2019-04-04T08:53:03.871Z,4.20
2019-04-04T08:54:07.529Z,4.70
2019-04-04T08:55:11.360Z,3.83
2019-04-04T08:56:15.390Z,4.13
2019-04-04T08:57:19.038Z,4.00
2019-04-04T08:58:22.681Z,4.43
2019-04-04T08:59:26.322Z,3.97
2019-04-04T09:00:30.381Z,4.07
2019-04-04T09:01:34.116Z,4.03
2019-04-04T09:02:37.759Z,3.30
2019-04-04T09:03:41.429Z,4.40
2019-04-04T09:04:45.139Z,3.80
2019-04-04T09:05:48.866Z,4.40
2019-04-04T09:06:52.576Z,4.63
2019-04-04T09:07:56.207Z,4.60
2019-04-04T09:08:59.906Z,4.97
2019-04-04T09:10:04.352Z,4.33
2019-04-04T09:11:08.013Z,4.60
2019-04-04T09:12:11.684Z,4.43
2019-04-04T09:13:16.837Z,4.90
2019-04-04T09:14:20.593Z,4.87
2019-04-04T09:15:24.261Z,4.80
2019-04-04T09:16:29.184Z,5.00
2019-04-04T09:17:32.928Z,4.77
2019-04-04T09:18:37.696Z,4.87
2019-04-04T09:19:41.890Z,4.87
2019-04-04T09:20:45.515Z,4.40
2019-04-04T09:21:49.224Z,4.87
2019-04-04T09:22:52.861Z,4.40
2019-04-04T09:23:56.524Z,5.10
2019-04-04T09:25:01.333Z,4.80
2019-04-04T09:26:06.316Z,4.53
2019-04-04T09:27:10.296Z,4.70
2019-04-04T09:28:14.304Z,5.20
2019-04-04T09:29:17.992Z,5.27
2019-04-04T09:30:22.755Z,5.50
2019-04-04T09:31:26.480Z,5.17
2019-04-04T09:32:30.125Z,4.90
2019-04-04T09:33:33.788Z,5.20
2019-04-04T09:34:37.499Z,4.83
2019-04-04T09:35:41.248Z,5.40
2019-04-04T09:36:44.891Z,5.27
2019-04-04T09:37:48.568Z,5.43
2019-04-04T09:38:52.241Z,5.20
2019-04-04T09:39:56.311Z,4.47
2019-04-04T09:41:00.007Z,4.33
2019-04-04T09:42:03.815Z,5.72
2019-04-04T09:43:07.554Z,5.40
2019-04-04T09:44:11.188Z,5.65
2019-04-04T09:45:14.854Z,6.03
2019-04-04T09:46:18.689Z,5.33
2019-04-04T09:47:22.329Z,5.10
2019-04-04T09:48:26.068Z,5.25
2019-04-04T09:49:29.807Z,5.15
2019-04-04T09:50:33.435Z,5.55
2019-04-04T09:51:37.212Z,6.12
2019-04-04T09:52:40.953Z,5.30
2019-04-04T09:53:52.855Z,4.90
2019-04-04T09:54:50.271Z,4.45
2019-04-04T09:55:53.950Z,5.10
2019-04-04T09:56:57.739Z,5.15
2019-04-04T09:58:01.429Z,5.00
2019-04-04T09:59:05.205Z,5.67
2019-04-04T10:00:11.885Z,5.35
2019-04-04T10:01:15.686Z,4.92
2019-04-04T10:02:20.214Z,5.47
2019-04-04T10:03:23.864Z,5.35
2019-04-04T10:04:27.582Z,5.20
2019-04-04T10:05:31.518Z,5.30
2019-04-04T10:06:35.232Z,6.22
2019-04-04T10:07:39.009Z,5.17
2019-04-04T10:08:42.688Z,5.62
2019-04-04T10:09:46.350Z,4.97
2019-04-04T10:10:51.555Z,4.83
2019-04-04T10:11:56.667Z,4.85
2019-04-04T10:13:04.527Z,5.15
2019-04-04T10:14:08.296Z,4.80
2019-04-04T10:15:12.521Z,5.08
2019-04-04T10:16:16.237Z,4.87
2019-04-04T10:17:19.887Z,5.83
2019-04-04T10:18:23.692Z,5.80
2019-04-04T10:19:27.401Z,5.58
2019-04-04T10:20:31.138Z,5.00
2019-04-04T10:21:34.902Z,5.03
2019-04-04T10:22:38.708Z,5.15
2019-04-04T10:23:42.482Z,4.80
2019-04-04T10:24:46.188Z,5.00
2019-04-04T10:25:49.974Z,5.75
2019-04-04T10:26:53.664Z,5.20
2019-04-04T10:27:57.333Z,5.08
2019-04-04T10:29:01.164Z,5.35
2019-04-04T10:30:07.290Z,6.10
2019-04-04T10:31:10.942Z,5.70
2019-04-04T10:32:14.609Z,5.70
2019-04-04T10:33:18.237Z,5.17
2019-04-04T10:34:21.853Z,5.35
2019-04-04T10:35:25.506Z,5.30
2019-04-04T10:36:29.173Z,5.22
2019-04-04T10:37:32.811Z,6.17
2019-04-04T10:38:36.475Z,6.03
2019-04-04T10:39:40.149Z,6.47
2019-04-04T10:40:43.848Z,5.33
2019-04-04T10:41:47.410Z,5.62
2019-04-04T10:42:51.133Z,5.75
2019-04-04T10:43:54.893Z,5.75
2019-04-04T10:44:58.564Z,5.40
2019-04-04T10:46:02.303Z,6.33
2019-04-04T10:47:06.749Z,5.83
2019-04-04T10:48:10.321Z,6.20
2019-04-04T10:49:14.074Z,5.70
2019-04-04T10:50:17.879Z,6.15
2019-04-04T10:51:21.483Z,5.80
2019-04-04T10:52:25.160Z,6.37
2019-04-04T10:53:28.867Z,5.85
2019-04-04T10:54:32.502Z,5.87
2019-04-04T10:55:36.150Z,5.95
2019-04-04T10:56:39.846Z,5.60
2019-04-04T10:57:43.483Z,5.92
2019-04-04T10:58:47.118Z,6.33
2019-04-04T10:59:54.571Z,5.67
2019-04-04T11:00:56.608Z,5.85
2019-04-04T11:02:00.950Z,5.95
2019-04-04T11:03:04.803Z,6.05
2019-04-04T11:04:08.434Z,6.17
2019-04-04T11:05:12.695Z,6.30
2019-04-04T11:06:16.411Z,5.65
2019-04-04T11:07:20.061Z,6.50
2019-04-04T11:08:23.695Z,6.15
2019-04-04T11:09:27.339Z,6.58
2019-04-04T11:10:31.049Z,6.40
2019-04-04T11:11:35.047Z,6.22
2019-04-04T11:12:38.686Z,6.53
2019-04-04T11:13:42.427Z,6.90
2019-04-04T11:14:46.129Z,6.42
2019-04-04T11:15:49.796Z,6.35
2019-04-04T11:16:53.439Z,6.35
2019-04-04T11:17:57.161Z,6.23
2019-04-04T11:19:00.833Z,6.03
2019-04-04T11:20:06.483Z,6.45
2019-04-04T11:21:10.531Z,6.33
2019-04-04T11:22:14.160Z,6.95
2019-04-04T11:23:17.742Z,6.43
2019-04-04T11:24:21.307Z,6.80
2019-04-04T11:25:24.984Z,5.93
2019-04-04T11:26:28.677Z,6.37
2019-04-04T11:27:32.323Z,6.10
2019-04-04T11:28:41.882Z,6.30
2019-04-04T11:29:45.661Z,5.85
2019-04-04T11:30:49.337Z,6.30
2019-04-04T11:31:53.012Z,6.97
2019-04-04T11:32:56.662Z,5.78
2019-04-04T11:34:00.174Z,6.50
2019-04-04T11:35:04.628Z,6.33
2019-04-04T11:36:08.279Z,6.60
2019-04-04T11:37:11.986Z,6.10
2019-04-04T11:38:15.713Z,5.87
2019-04-04T11:39:19.349Z,6.20
2019-04-04T11:40:23.041Z,6.17
2019-04-04T11:41:26.713Z,6.50
2019-04-04T11:42:30.407Z,6.95
2019-04-04T11:43:34.030Z,6.45
2019-04-04T11:44:37.795Z,6.60
2019-04-04T11:45:41.458Z,6.47
2019-04-04T11:46:45.109Z,6.42
2019-04-04T11:47:48.860Z,5.92
2019-04-04T11:48:52.490Z,6.50
2019-04-04T11:49:56.198Z,7.20
2019-04-04T11:50:59.904Z,7.05
2019-04-04T11:52:03.543Z,6.60
2019-04-04T11:53:07.228Z,6.65
2019-04-04T11:54:11.006Z,6.90
2019-04-04T11:55:14.680Z,6.50
2019-04-04T11:56:18.323Z,6.42
2019-04-04T11:57:23.920Z,6.78
2019-04-04T11:58:27.599Z,6.90
2019-04-04T11:59:31.319Z,7.20
2019-04-04T12:00:36.602Z,7.63
2019-04-04T12:01:41.922Z,6.83
2019-04-04T12:02:45.662Z,7.00
2019-04-04T12:03:49.355Z,7.37
2019-04-04T12:04:53.327Z,6.43
2019-04-04T12:05:57.046Z,6.37
2019-04-04T12:07:00.712Z,6.87
2019-04-04T12:08:04.428Z,6.83
2019-04-04T12:09:08.557Z,7.20
2019-04-04T12:10:12.687Z,5.70
2019-04-04T12:11:16.360Z,6.47
2019-04-04T12:12:20.103Z,6.03
2019-04-04T12:13:23.756Z,6.53
2019-04-04T12:14:27.513Z,6.17
2019-04-04T12:15:31.256Z,6.20
2019-04-04T12:16:35.001Z,6.17
2019-04-04T12:17:38.714Z,5.97
2019-04-04T12:18:42.393Z,6.57
2019-04-04T12:19:46.134Z,6.57
2019-04-04T12:20:49.874Z,6.50
2019-04-04T12:21:53.579Z,6.87
2019-04-04T12:22:57.326Z,6.23
2019-04-04T12:24:01.043Z,7.80
2019-04-04T12:25:06.144Z,6.30
2019-04-04T12:26:10.167Z,6.17
2019-04-04T12:27:13.875Z,6.40
2019-04-04T12:28:17.545Z,5.77
2019-04-04T12:29:21.240Z,6.50
2019-04-04T12:30:24.986Z,6.07
2019-04-04T12:31:28.719Z,6.30
2019-04-04T12:32:32.458Z,5.80
2019-04-04T12:33:36.120Z,5.77
2019-04-04T12:34:39.812Z,6.33
2019-04-04T12:35:43.578Z,5.87
2019-04-04T12:36:47.258Z,6.33
2019-04-04T12:37:50.974Z,5.90
2019-04-04T12:38:54.725Z,6.57
2019-04-04T12:39:58.396Z,5.80
2019-04-04T12:41:02.128Z,6.30
2019-04-04T12:42:05.860Z,6.50
2019-04-04T12:43:09.504Z,6.53
2019-04-04T12:44:13.229Z,6.30
2019-04-04T12:45:17.054Z,6.63
2019-04-04T12:46:20.748Z,6.33
2019-04-04T12:47:24.455Z,6.63
2019-04-04T12:48:28.090Z,6.13
2019-04-04T12:49:31.727Z,5.97
2019-04-04T12:50:35.410Z,6.83
2019-04-04T12:51:39.075Z,6.37
2019-04-04T12:52:42.728Z,5.97
2019-04-04T12:53:46.371Z,6.03
2019-04-04T12:54:50.026Z,6.10
2019-04-04T12:55:54.342Z,6.53
2019-04-04T12:56:58.114Z,6.90
2019-04-04T12:58:01.768Z,6.63
2019-04-04T12:59:05.449Z,6.33
2019-04-04T13:00:10.420Z,6.00
2019-04-04T13:01:14.027Z,6.17
2019-04-04T13:02:17.742Z,6.83
2019-04-04T13:03:22.596Z,6.33
2019-04-04T13:04:31.487Z,6.50
2019-04-04T13:05:31.726Z,6.23
2019-04-04T13:06:35.395Z,6.45
2019-04-04T13:07:39.136Z,6.30
2019-04-04T13:08:42.804Z,6.65
2019-04-04T13:09:46.537Z,6.90
2019-04-04T13:10:50.295Z,6.55
2019-04-04T13:11:54.051Z,6.53
2019-04-04T13:12:57.798Z,6.90
2019-04-04T13:14:01.414Z,6.62
2019-04-04T13:15:10.353Z,6.15
2019-04-04T13:16:14.045Z,6.05
2019-04-04T13:17:17.720Z,5.62
2019-04-04T13:18:21.282Z,6.10
2019-04-04T13:19:24.878Z,6.12
2019-04-04T13:20:28.548Z,6.67
2019-04-04T13:21:32.236Z,6.78
2019-04-04T13:22:36.839Z,6.87
2019-04-04T13:23:40.500Z,6.47
2019-04-04T13:24:44.078Z,6.50
2019-04-04T13:25:47.757Z,6.00
2019-04-04T13:26:51.441Z,6.80
2019-04-04T13:27:55.094Z,6.22
2019-04-04T13:28:58.663Z,5.97
2019-04-04T13:30:02.317Z,6.73
2019-04-04T13:31:05.963Z,6.93
2019-04-04T13:32:09.635Z,6.28
2019-04-04T13:33:13.286Z,6.47
2019-04-04T13:34:16.914Z,6.40
2019-04-04T13:35:20.538Z,6.63
2019-04-04T13:36:24.248Z,6.37
2019-04-04T13:37:27.956Z,5.93
2019-04-04T13:38:31.625Z,6.30
2019-04-04T13:39:35.302Z,6.73
2019-04-04T13:40:45.429Z,6.47
2019-04-04T13:41:44.300Z,6.27
2019-04-04T13:42:48.007Z,6.67
2019-04-04T13:43:54.373Z,6.40
2019-04-04T13:44:58.031Z,5.80
2019-04-04T13:46:02.048Z,6.27
2019-04-04T13:47:05.730Z,6.43
2019-04-04T13:48:10.713Z,6.90
2019-04-04T13:49:14.861Z,5.90
2019-04-04T13:50:20.518Z,6.60
2019-04-04T13:51:25.565Z,6.30
2019-04-04T13:52:29.303Z,6.50
2019-04-04T13:53:33.006Z,8.07
2019-04-04T13:54:36.678Z,6.57
2019-04-04T13:55:40.341Z,6.97
2019-04-04T13:56:44.084Z,6.70
2019-04-04T13:57:48.275Z,7.07
2019-04-04T13:58:52.140Z,5.97
2019-04-04T13:59:55.849Z,6.03
2019-04-04T14:00:59.555Z,5.87
2019-04-04T14:02:03.270Z,6.83
2019-04-04T14:03:06.903Z,6.07
2019-04-04T14:04:10.635Z,5.77
2019-04-04T14:05:14.737Z,6.43
2019-04-04T14:06:18.607Z,5.53
2019-04-04T14:07:22.344Z,5.87
2019-04-04T14:08:26.091Z,5.77